createdAt,value
2018-02-20T00:00:12.658Z,62.10
2018-02-20T00:02:40.957Z,62.00
2018-02-20T00:05:08.489Z,62.00
2018-02-20T00:07:36.017Z,62.10
2018-02-20T00:10:03.586Z,63.10
2018-02-20T00:12:31.110Z,62.30
2018-02-20T00:14:58.840Z,62.30
2018-02-20T00:17:27.177Z,62.10
2018-02-20T00:19:54.976Z,62.10
2018-02-20T00:22:22.769Z,62.10
2018-02-20T00:24:50.280Z,62.40
2018-02-20T00:27:18.517Z,62.50
2018-02-20T00:29:46.387Z,62.60
2018-02-20T00:32:13.944Z,62.80
2018-02-20T00:34:41.462Z,62.70
2018-02-20T00:37:09.750Z,63.00
2018-02-20T00:39:38.669Z,62.80
2018-02-20T00:42:06.802Z,62.70
2018-02-20T00:44:35.191Z,62.40
2018-02-20T00:47:03.501Z,62.70
2018-02-20T00:49:31.372Z,62.70
2018-02-20T00:51:58.903Z,62.90
2018-02-20T00:54:27.305Z,62.10
2018-02-20T00:56:54.830Z,62.00
2018-02-20T00:59:28.056Z,62.40
2018-02-20T01:01:55.565Z,62.30
2018-02-20T01:04:26.902Z,62.20
2018-02-20T01:06:54.745Z,62.80
2018-02-20T01:09:22.439Z,62.60
2018-02-20T01:11:49.947Z,62.60
2018-02-20T01:14:25.592Z,62.40
2018-02-20T01:16:54.812Z,62.50
2018-02-20T01:19:22.382Z,62.80
2018-02-20T01:21:54.137Z,63.20
2018-02-20T01:24:21.701Z,63.40
2018-02-20T01:26:49.860Z,63.20
2018-02-20T01:29:17.502Z,63.40
2018-02-20T01:31:45.776Z,63.80
2018-02-20T01:34:14.070Z,64.00
2018-02-20T01:36:41.634Z,63.90
2018-02-20T01:39:09.693Z,63.90
2018-02-20T01:41:37.577Z,64.00
2018-02-20T01:44:05.527Z,63.90
2018-02-20T01:46:33.057Z,63.50
2018-02-20T01:49:00.573Z,63.50
2018-02-20T01:51:28.125Z,63.40
2018-02-20T01:53:56.145Z,63.00
2018-02-20T01:56:23.677Z,62.90
2018-02-20T01:58:53.068Z,63.20
2018-02-20T02:01:20.928Z,63.60
2018-02-20T02:03:48.503Z,63.70
2018-02-20T02:06:16.115Z,64.20
2018-02-20T02:08:44.517Z,64.60
2018-02-20T02:11:12.040Z,64.60
2018-02-20T02:13:39.569Z,65.00
2018-02-20T02:16:07.091Z,65.30
2018-02-20T02:18:34.749Z,65.70
2018-02-20T02:21:02.962Z,66.30
2018-02-20T02:23:30.517Z,67.30
2018-02-20T02:25:58.062Z,66.90
2018-02-20T02:28:26.009Z,66.70
2018-02-20T02:30:53.546Z,65.70
2018-02-20T02:33:25.448Z,65.50
2018-02-20T02:35:52.981Z,65.10
2018-02-20T02:38:21.283Z,65.60
2018-02-20T02:40:49.685Z,65.60
2018-02-20T02:43:17.320Z,65.60
2018-02-20T02:45:45.432Z,65.70
2018-02-20T02:48:15.025Z,65.50
2018-02-20T02:50:42.689Z,65.40
2018-02-20T02:53:12.819Z,65.50
2018-02-20T02:55:41.246Z,65.90
2018-02-20T02:58:09.551Z,65.60
2018-02-20T03:00:37.843Z,65.60
2018-02-20T03:03:05.846Z,65.40
2018-02-20T03:05:33.360Z,65.50
2018-02-20T03:08:01.637Z,65.70
2018-02-20T03:10:29.169Z,65.70
2018-02-20T03:13:02.043Z,65.90
2018-02-20T03:15:30.366Z,66.00
2018-02-20T03:17:58.764Z,66.00
2018-02-20T03:20:28.045Z,65.90
2018-02-20T03:22:56.419Z,65.80
2018-02-20T03:25:24.796Z,65.60
2018-02-20T03:27:53.112Z,65.70
2018-02-20T03:30:21.602Z,66.20
2018-02-20T03:32:49.696Z,66.40
2018-02-20T03:35:17.980Z,66.30
2018-02-20T03:37:46.593Z,65.90
2018-02-20T03:40:18.642Z,65.90
2018-02-20T03:42:49.191Z,65.70
2018-02-20T03:45:16.847Z,65.70
2018-02-20T03:47:48.372Z,65.70
2018-02-20T03:50:17.594Z,65.90
2018-02-20T03:52:45.096Z,65.80
2018-02-20T04:08:18.535Z,70.40
2018-02-20T04:10:46.099Z,70.40
2018-02-20T04:13:13.663Z,70.20
2018-02-20T04:15:41.185Z,69.50
2018-02-20T04:18:09.501Z,68.50
2018-02-20T04:20:37.855Z,69.20
2018-02-20T04:23:06.281Z,67.90
2018-02-20T04:25:45.585Z,67.90
2018-02-20T04:28:13.717Z,67.90
2018-02-20T04:30:41.258Z,67.90
2018-02-20T04:33:08.894Z,67.70
2018-02-20T04:35:36.817Z,67.70
2018-02-20T04:38:04.785Z,67.70
2018-02-20T04:40:32.633Z,67.70
2018-02-20T04:43:00.656Z,67.80
2018-02-20T04:45:28.165Z,68.00
2018-02-20T04:47:59.873Z,67.90
2018-02-20T04:50:31.446Z,68.00
2018-02-20T04:52:58.960Z,67.80
2018-02-20T04:55:27.245Z,67.90
2018-02-20T04:57:59.792Z,68.20
2018-02-20T05:00:27.344Z,68.20
2018-02-20T05:02:55.220Z,68.00
2018-02-20T05:05:23.146Z,67.60
2018-02-20T05:07:50.664Z,67.40
2018-02-20T05:10:18.960Z,67.30
2018-02-20T05:12:51.635Z,67.00
2018-02-20T05:15:27.220Z,66.70
2018-02-20T05:17:54.741Z,66.60
2018-02-20T05:20:23.014Z,67.00
2018-02-20T05:22:51.942Z,67.20
2018-02-20T05:25:19.542Z,67.10
2018-02-20T05:27:48.853Z,67.40
2018-02-20T05:30:30.537Z,67.60
2018-02-20T05:32:58.101Z,67.60
2018-02-20T05:35:25.626Z,67.80
2018-02-20T05:37:53.140Z,67.40
2018-02-20T05:40:22.474Z,66.40
2018-02-20T05:42:53.903Z,66.40
2018-02-20T05:45:22.465Z,68.10
2018-02-20T05:47:54.447Z,68.00
2018-02-20T05:50:23.076Z,67.60
2018-02-20T05:52:51.660Z,67.60
2018-02-20T05:55:19.181Z,67.30
2018-02-20T05:57:47.081Z,67.60
2018-02-20T06:00:15.979Z,67.50
2018-02-20T06:02:47.947Z,67.30
2018-02-20T06:05:15.600Z,67.40
2018-02-20T06:07:43.256Z,67.60
2018-02-20T06:10:15.089Z,67.60
2018-02-20T06:12:43.024Z,67.70
2018-02-20T06:15:13.757Z,67.70
2018-02-20T06:17:45.854Z,67.70
2018-02-20T06:20:13.413Z,67.90
2018-02-20T06:22:41.689Z,68.00
2018-02-20T06:25:09.944Z,68.30
2018-02-20T06:27:37.480Z,68.40
2018-02-20T06:30:05.048Z,69.40
2018-02-20T06:32:32.556Z,68.70
2018-02-20T06:35:00.798Z,68.60
2018-02-20T06:37:32.436Z,69.00
2018-02-20T06:40:00.023Z,69.70
2018-02-20T06:42:36.141Z,68.70
2018-02-20T06:45:09.573Z,68.00
2018-02-20T06:47:41.586Z,67.60
2018-02-20T06:50:09.962Z,67.90
2018-02-20T06:52:38.183Z,67.30
2018-02-20T06:55:05.708Z,67.20
2018-02-20T06:57:33.855Z,67.10
2018-02-20T07:00:01.393Z,68.30
2018-02-20T07:02:29.805Z,68.60
2018-02-20T07:04:57.751Z,68.60
2018-02-20T07:07:30.222Z,67.90
2018-02-20T07:09:58.508Z,67.80
2018-02-20T07:12:30.940Z,67.30
2018-02-20T07:14:59.057Z,67.30
2018-02-20T07:17:27.461Z,66.80
2018-02-20T07:19:55.017Z,65.10
2018-02-20T07:22:26.880Z,63.90
2018-02-20T07:24:54.448Z,61.40
2018-02-20T07:27:22.041Z,58.20
2018-02-20T07:29:51.098Z,53.20
2018-02-20T07:32:18.664Z,53.20
2018-02-20T07:34:46.217Z,50.60
2018-02-20T07:37:14.521Z,47.90
2018-02-20T07:39:42.089Z,45.40
2018-02-20T07:42:09.677Z,43.50
2018-02-20T07:44:39.221Z,39.70
2018-02-20T07:47:06.884Z,39.50
2018-02-20T07:49:34.651Z,38.00
2018-02-20T07:52:02.193Z,36.50
2018-02-20T07:54:29.722Z,34.80
2018-02-20T07:56:57.258Z,33.60
2018-02-20T07:59:24.772Z,33.20
2018-02-20T08:01:52.335Z,31.60
2018-02-20T08:04:23.989Z,31.10
2018-02-20T08:06:51.508Z,31.40
2018-02-20T08:09:19.420Z,31.40
2018-02-20T08:11:47.856Z,30.60
2018-02-20T08:14:15.470Z,30.00
2018-02-20T08:29:48.045Z,29.90
2018-02-20T08:45:20.591Z,28.50
2018-02-20T08:47:48.128Z,27.70
2018-02-20T08:50:16.431Z,26.20
2018-02-20T08:52:44.030Z,26.20
2018-02-20T08:55:12.173Z,25.70
2018-02-20T08:57:39.695Z,25.10
2018-02-20T09:00:08.006Z,25.70
2018-02-20T09:02:35.474Z,25.70
2018-02-20T09:05:03.010Z,25.40
2018-02-20T09:07:31.823Z,24.90
2018-02-20T09:09:59.345Z,24.90
2018-02-20T09:12:31.959Z,25.00
2018-02-20T09:14:59.504Z,24.90
2018-02-20T09:17:27.017Z,24.70
2018-02-20T09:19:55.459Z,25.00
2018-02-20T09:22:22.996Z,25.50
2018-02-20T09:24:51.305Z,25.50
2018-02-20T09:27:18.829Z,25.50
2018-02-20T09:29:47.112Z,25.70
2018-02-20T09:32:14.654Z,25.70
2018-02-20T09:34:43.791Z,26.30
2018-02-20T09:37:11.334Z,26.30
2018-02-20T09:39:39.063Z,25.50
2018-02-20T09:42:08.357Z,24.70
2018-02-20T09:44:36.249Z,24.20
2018-02-20T09:47:04.597Z,25.90
2018-02-20T09:49:32.676Z,25.90
2018-02-20T09:52:01.020Z,26.10
2018-02-20T09:54:28.543Z,26.10
2018-02-20T09:56:56.957Z,26.20
2018-02-20T09:59:24.480Z,26.20
2018-02-20T10:01:53.848Z,26.30
2018-02-20T10:04:26.359Z,26.30
2018-02-20T10:06:54.644Z,25.90
2018-02-20T10:09:31.238Z,25.80
2018-02-20T10:11:59.849Z,25.70
2018-02-20T10:14:27.394Z,25.60
2018-02-20T10:16:54.925Z,25.70
2018-02-20T10:19:22.489Z,25.40
2018-02-20T10:21:50.527Z,25.50
2018-02-20T10:24:18.188Z,25.40
2018-02-20T10:26:47.695Z,26.20
2018-02-20T10:29:15.222Z,26.10
2018-02-20T10:31:42.809Z,26.70
2018-02-20T10:34:10.425Z,26.40
2018-02-20T10:36:38.557Z,26.30
2018-02-20T10:39:06.854Z,27.50
2018-02-20T10:41:38.351Z,27.40
2018-02-20T10:44:05.889Z,28.10
2018-02-20T10:46:33.416Z,29.30
2018-02-20T10:49:01.717Z,27.50
2018-02-20T10:51:29.302Z,27.50
2018-02-20T10:53:56.841Z,29.00
2018-02-20T10:56:24.418Z,29.20
2018-02-20T10:58:52.062Z,28.70
2018-02-20T11:01:19.625Z,29.00
2018-02-20T11:03:47.225Z,28.50
2018-02-20T11:06:14.788Z,28.60
2018-02-20T11:08:43.257Z,28.70
2018-02-20T11:11:10.793Z,28.70
2018-02-20T11:13:38.305Z,28.90
2018-02-20T11:16:06.619Z,28.50
2018-02-20T11:18:34.137Z,28.50
2018-02-20T11:21:01.750Z,28.50
2018-02-20T11:25:21.771Z,28.90
2018-02-20T11:27:49.301Z,27.40
2018-02-20T11:30:16.852Z,27.70
2018-02-20T11:32:44.388Z,27.50
2018-02-20T11:35:12.934Z,28.20
2018-02-20T11:37:40.469Z,28.10
2018-02-20T11:40:08.167Z,27.50
2018-02-20T11:42:35.804Z,27.20
2018-02-20T11:45:03.390Z,26.70
2018-02-20T11:47:31.122Z,26.10
2018-02-20T11:49:58.663Z,27.00
2018-02-20T11:52:26.213Z,26.30
2018-02-20T11:54:53.841Z,25.90
2018-02-20T11:57:22.157Z,25.00
2018-02-20T11:59:49.677Z,25.00
2018-02-20T12:02:17.293Z,25.20
2018-02-20T12:04:45.306Z,25.50
2018-02-20T12:07:13.574Z,25.50
2018-02-20T12:09:41.489Z,25.60
2018-02-20T12:12:09.158Z,26.00
2018-02-20T12:14:37.056Z,25.20
2018-02-20T12:17:05.364Z,25.70
2018-02-20T12:19:32.902Z,25.80
2018-02-20T12:22:05.247Z,26.30
2018-02-20T12:24:37.547Z,26.10
2018-02-20T12:27:05.180Z,25.80
2018-02-20T12:29:32.750Z,26.40
2018-02-20T12:32:00.419Z,25.90
2018-02-20T12:34:28.055Z,25.60
2018-02-20T12:36:55.586Z,25.90
2018-02-20T12:39:24.281Z,26.20
2018-02-20T12:41:52.685Z,25.90
2018-02-20T12:44:20.263Z,25.90
2018-02-20T12:46:51.694Z,26.30
2018-02-20T12:49:19.262Z,27.10
2018-02-20T12:51:46.813Z,27.20
2018-02-20T12:54:14.377Z,28.10
2018-02-20T12:56:41.943Z,30.50
2018-02-20T12:59:09.510Z,30.60
2018-02-20T13:01:37.175Z,31.60
2018-02-20T13:04:08.505Z,32.20
2018-02-20T13:06:36.064Z,33.90
2018-02-20T13:09:03.637Z,35.20
2018-02-20T13:11:31.373Z,35.20
2018-02-20T13:13:59.670Z,34.20
2018-02-20T13:16:27.194Z,34.10
2018-02-20T13:18:55.988Z,33.90
2018-02-20T13:21:24.304Z,35.00
2018-02-20T13:23:53.161Z,34.90
2018-02-20T13:26:25.389Z,37.60
2018-02-20T13:28:53.028Z,37.50
2018-02-20T13:31:20.553Z,37.70
2018-02-20T13:33:48.957Z,38.20
2018-02-20T13:36:16.517Z,38.20
2018-02-20T13:38:47.837Z,38.90
2018-02-20T13:41:16.151Z,39.70
2018-02-20T13:43:49.274Z,39.70
2018-02-20T13:46:16.807Z,40.00
2018-02-20T13:48:45.482Z,40.10
2018-02-20T13:51:13.058Z,41.00
2018-02-20T13:53:40.589Z,40.20
2018-02-20T14:09:13.221Z,41.30
2018-02-20T14:11:41.490Z,41.40
2018-02-20T14:14:13.171Z,39.80
2018-02-20T14:16:41.469Z,40.80
2018-02-20T14:19:09.762Z,40.70
2018-02-20T14:21:37.302Z,40.10
2018-02-20T14:24:04.826Z,39.80
2018-02-20T14:26:32.357Z,38.60
2018-02-20T14:29:00.624Z,35.80
2018-02-20T14:31:28.910Z,34.20
2018-02-20T14:33:56.664Z,33.90
2018-02-20T14:36:24.472Z,35.30
2018-02-20T14:38:52.001Z,36.90
2018-02-20T14:41:20.269Z,37.10
2018-02-20T14:43:47.820Z,36.20
2018-02-20T14:46:15.357Z,35.00
2018-02-20T14:48:42.885Z,35.10
2018-02-20T14:51:10.509Z,35.60
2018-02-20T14:53:38.265Z,36.50
2018-02-20T14:56:05.801Z,37.20
2018-02-20T14:58:33.481Z,38.20
2018-02-20T15:01:01.005Z,38.70
2018-02-20T15:03:29.418Z,40.80
2018-02-20T15:05:57.818Z,40.80
2018-02-20T15:08:25.969Z,40.60
2018-02-20T15:10:53.852Z,41.60
2018-02-20T15:26:27.183Z,42.00
2018-02-20T15:28:54.843Z,45.00
2018-02-20T15:33:58.327Z,45.70
2018-02-20T15:36:27.070Z,45.90
2018-02-20T15:38:55.641Z,44.70
2018-02-20T15:41:24.804Z,44.40
2018-02-20T15:43:53.022Z,44.30
2018-02-20T15:46:26.181Z,45.00
2018-02-20T15:48:54.119Z,45.00
2018-02-20T15:51:21.653Z,44.90
2018-02-20T15:53:49.953Z,45.00
2018-02-20T15:56:18.440Z,45.60
2018-02-20T15:58:45.974Z,45.70
